Time;durP1;ratioP1;P1;durP2;ratioP2;P2;SDS_P1;SDS_P2;PMS_P1;PMS_P2;Temp;Humidity;BMP_temperature;BMP_pressure;BME280_temperature;BME280_humidity;BME280_pressure;Samples;Min_cycle;Max_cycle;Signal;HPM_P1;HPM_P2
2022/06/27 00:00:22;;;;;;;7.00;5.70;;;;;;;22.66;49.09;100492.25;110812;1254;21987;-82
2022/06/27 00:03:41;;;;;;;9.50;5.40;;;;;;;22.61;49.34;100489.84;110801;1254;23669;-81
2022/06/27 00:07:31;;;;;;;;;;;;;;;;;;;;;
2022/06/27 00:11:21;;;;;;;;;;;;;;;;;;;;;
2022/06/27 00:14:34;;;;;;;8.00;5.80;;;;;;;22.47;50.03;100483.86;109883;1260;23680;-79
2022/06/27 00:18:25;;;;;;;;;;;;;;;;;;;;;
2022/06/27 00:22:06;;;;;;;;;;;;;;;;;;;;;
2022/06/27 00:25:34;;;;;;;6.90;5.60;;;;;;;22.36;50.35;100484.36;109326;1266;21982;-80
2022/06/27 00:29:07;;;;;;;;;;;;;;;;;;;;;
2022/06/27 00:32:21;;;;;;;;;;;;;;;;;;;;;
2022/06/27 00:35:56;;;;;;;;;;;;;;;;;;;;;
2022/06/27 00:39:20;;;;;;;9.30;6.30;;;;;;;22.13;51.10;100482.03;109860;1260;22256;-79
2022/06/27 00:42:45;;;;;;;;;;;;;;;;;;;;;
2022/06/27 00:46:53;;;;;;;7.90;5.70;;;;;;;22.02;51.49;100483.70;110422;1257;21998;-79
2022/06/27 00:50:32;;;;;;;8.60;5.80;;;;;;;21.94;51.68;100486.20;109329;1265;22048;-79
2022/06/27 00:53:55;;;;;;;9.60;6.40;;;;;;;21.89;51.99;100485.73;108600;1276;22005;-79
2022/06/27 00:57:04;;;;;;;;;;;;;;;;;;;;;
2022/06/27 01:01:26;;;;;;;10.70;5.50;;;;;;;21.88;52.37;100488.27;107492;1288;21988;-78
2022/06/27 01:04:00;;;;;;;;;;;;;;;;;;;;;
2022/06/27 01:07:02;;;;;;;7.50;6.10;;;;;;;21.82;52.46;100486.44;107449;1287;24330;-79
2022/06/27 01:10:34;;;;;;;7.90;5.90;;;;;;;21.78;52.54;100486.74;107405;1288;22006;-78
2022/06/27 01:13:26;;;;;;;8.00;5.70;;;;;;;21.71;52.65;100487.99;107417;1289;23715;-78
2022/06/27 01:16:01;;;;;;;8.90;6.30;;;;;;;21.67;52.85;100486.39;107374;1288;24477;-78
2022/06/27 01:19:04;;;;;;;;;;;;;;;;;;;;;
2022/06/27 01:22:39;;;;;;;7.20;6.10;;;;;;;21.57;53.18;100483.80;107864;1283;22010;-78
2022/06/27 01:25:47;;;;;;;6.70;6.00;;;;;;;21.56;53.38;100484.25;108250;1276;22774;-78
2022/06/27 01:29:08;;;;;;;6.70;5.90;;;;;;;21.54;53.56;100486.19;109082;1267;24422;-78
2022/06/27 01:32:19;;;;;;;;;;;;;;;;;;;;;
2022/06/27 01:39:58;;;;;;;;;;;;;;;;;;;;;
2022/06/27 01:44:04;;;;;;;;;;;;;;;;;;;;;
2022/06/27 01:47:12;;;;;;;12.30;7.10;;;;;;;21.29;54.22;100482.90;108304;1279;21991;-79
2022/06/27 01:50:30;;;;;;;8.60;6.50;;;;;;;21.27;54.23;100483.98;108277;1276;22083;-79
2022/06/27 01:54:03;;;;;;;7.30;6.30;;;;;;;21.25;54.23;100486.13;108703;1273;23547;-78
2022/06/27 01:57:20;;;;;;;;;;;;;;;;;;;;;
2022/06/27 02:00:15;;;;;;;7.20;6.60;;;;;;;21.19;54.57;100487.55;108686;1273;21986;-80
2022/06/27 02:03:45;;;;;;;;;;;;;;;;;;;;;
2022/06/27 02:07:45;;;;;;;;;;;;;;;21.10;55.11;100486.59;109277;1264;21957;-79
2022/06/27 02:12:18;;;;;;;9.70;6.80;;;;;;;20.98;55.45;100484.38;109246;1264;22526;-79
2022/06/27 02:15:00;;;;;;;8.90;7.00;;;;;;;20.94;55.32;100484.82;108880;1269;22870;-79
2022/06/27 02:18:41;;;;;;;;;;;;;;;;;;;;;
2022/06/27 02:22:23;;;;;;;7.70;6.80;;;;;;;20.82;55.57;100481.02;109201;1270;23066;-79
2022/06/27 02:25:49;;;;;;;18.30;8.20;;;;;;;20.79;55.87;100481.48;108677;1273;23697;-80
2022/06/27 02:28:47;;;;;;;9.70;6.80;;;;;;;20.82;55.92;100485.15;108739;1272;22069;-79
2022/06/27 02:32:23;;;;;;;10.80;7.00;;;;;;;20.85;55.93;100490.48;108335;1276;22023;-80
2022/06/27 02:35:28;;;;;;;10.00;6.70;;;;;;;20.85;56.14;100490.64;108539;1273;23247;-79
2022/06/27 02:49:08;;;;;;;9.00;6.90;;;;;;;20.55;56.71;100491.02;107169;1291;22032;-78
2022/06/27 02:52:13;;;;;;;12.30;6.30;;;;;;;20.56;56.92;100492.49;107136;1292;22041;-79
2022/06/27 02:55:08;;;;;;;7.40;6.80;;;;;;;20.56;57.00;100495.02;107255;1291;23103;-80
2022/06/27 03:01:20;;;;;;;10.30;7.50;;;;;;;20.50;57.30;100496.23;107663;1285;22004;-81
2022/06/27 03:04:29;;;;;;;8.90;7.60;;;;;;;20.50;57.39;100497.39;108243;1280;21999;-79
2022/06/27 03:07:23;;;;;;;8.90;7.60;;;;;;;20.51;57.39;100497.67;107968;1282;22835;-79
2022/06/27 03:10:29;;;;;;;11.90;7.10;;;;;;;20.54;57.44;100501.89;107963;1280;21996;-77
2022/06/27 03:13:27;;;;;;;13.20;7.50;;;;;;;20.57;57.26;100502.89;108165;1279;24490;-78
2022/06/27 03:16:32;;;;;;;10.30;7.30;;;;;;;20.62;57.44;100505.91;107997;1282;23858;-79
2022/06/27 03:19:18;;;;;;;9.40;6.70;;;;;;;20.64;57.34;100509.79;107404;1287;22471;-81
2022/06/27 03:22:22;;;;;;;13.60;8.00;;;;;;;20.64;57.21;100515.90;107474;1283;22041;-79
2022/06/27 03:25:42;;;;;;;8.90;8.00;;;;;;;20.63;57.31;100512.65;107709;1283;23784;-79
2022/06/27 03:28:43;;;;;;;11.60;7.70;;;;;;;20.58;57.24;100511.77;108334;1280;22699;-78
2022/06/27 03:32:17;;;;;;;8.70;6.90;;;;;;;20.56;57.42;100514.57;108047;1279;22000;-79
2022/06/27 03:35:31;;;;;;;;;;;;;;;;;;;;;
2022/06/27 03:38:25;;;;;;;;;;;;;;;;;;;;;
2022/06/27 03:42:41;;;;;;;;;;;;;;;;;;;;;
2022/06/27 03:46:18;;;;;;;7.50;6.80;;;;;;;20.83;57.82;100520.61;108241;1279;23383;-81
2022/06/27 03:50:13;;;;;;;11.00;7.30;;;;;;;20.92;57.47;100524.80;108331;1279;21991;-80
2022/06/27 03:53:43;;;;;;;9.10;6.40;;;;;;;20.97;57.44;100527.23;108253;1282;22040;-80
2022/06/27 03:56:52;;;;;;;9.80;8.30;;;;;;;21.04;57.40;100523.56;108020;1282;22009;-80
2022/06/27 03:59:28;;;;;;;7.90;7.20;;;;;;;21.13;57.16;100523.95;108188;1279;21995;-79
2022/06/27 04:02:14;;;;;;;;;;;;;;;;;;;;;
2022/06/27 04:08:49;;;;;;;;;;;;;;;;;;;;;
2022/06/27 04:16:51;;;;;;;;;;;;;;;;;;;;;
2022/06/27 04:19:49;;;;;;;10.70;7.10;;;;;;;21.62;56.59;100538.52;108288;1282;22007;-79
2022/06/27 04:23:30;;;;;;;15.20;6.70;;;;;;;21.70;56.26;100538.47;107998;1285;23624;-79
2022/06/27 04:26:44;;;;;;;11.40;6.80;;;;;;;21.78;56.15;100540.63;107525;1285;22011;-79
2022/06/27 04:29:38;;;;;;;;;;;;;;;;;;;;;
2022/06/27 04:32:14;;;;;;;8.80;6.60;;;;;;;22.02;56.13;100542.52;108012;1282;21988;-79
2022/06/27 04:35:11;;;;;;;7.00;5.90;;;;;;;22.17;55.85;100544.23;108285;1276;21986;-79
2022/06/27 04:38:36;;;;;;;8.70;5.90;;;;;;;22.34;55.59;100544.81;108403;1276;21999;-80
2022/06/27 04:42:12;;;;;;;12.40;5.70;;;;;;;22.47;55.25;100542.86;108930;1271;22012;-80
2022/06/27 04:45:45;;;;;;;8.40;5.70;;;;;;;22.60;54.91;100540.87;108860;1269;22755;-78
2022/06/27 04:49:21;;;;;;;9.60;5.60;;;;;;;22.69;54.62;100541.45;108641;1273;23738;-79
2022/06/27 04:56:52;;;;;;;;;;;;;;;;;;;;;
2022/06/27 05:00:24;;;;;;;11.60;5.30;;;;;;;23.12;54.06;100544.66;108873;1273;22002;-78
2022/06/27 05:03:55;;;;;;;7.20;5.10;;;;;;;23.25;53.45;100546.27;108614;1273;22977;-79
2022/06/27 05:07:15;;;;;;;;;;;;;;;;;;;;;
2022/06/27 05:10:29;;;;;;;6.60;4.90;;;;;;;23.60;52.77;100553.90;108156;1279;23605;-79
2022/06/27 05:13:57;;;;;;;8.90;4.80;;;;;;;23.77;52.30;100558.88;108133;1285;24546;-81
2022/06/27 05:17:14;;;;;;;;;;;;;;;;;;;;;
2022/06/27 05:20:32;;;;;;;10.40;4.70;;;;;;;24.11;51.68;100563.29;107839;1285;23724;-79
2022/06/27 05:23:38;;;;;;;7.50;4.30;;;;;;;24.32;51.38;100566.27;108077;1279;22416;-79
2022/06/27 05:26:13;;;;;;;8.60;5.00;;;;;;;24.52;51.09;100564.40;108446;1268;21974;-78
2022/06/27 05:28:52;;;;;;;10.90;4.30;;;;;;;24.70;50.33;100562.80;109535;1261;21945;-79
2022/06/27 05:32:14;;;;;;;;;;;;;;;;;;;;;
2022/06/27 05:35:38;;;;;;;10.60;5.10;;;;;;;25.09;49.80;100572.06;108880;1270;22845;-77
2022/06/27 05:38:56;;;;;;;7.20;4.30;;;;;;;25.28;48.82;100572.48;108755;1273;23683;-78
2022/06/27 05:42:13;;;;;;;6.30;4.30;;;;;;;25.52;48.70;100570.15;108231;1278;23075;-76
2022/06/27 05:45:46;;;;;;;;;;;;;;;;;;;;;
2022/06/27 05:48:51;;;;;;;10.50;4.80;;;;;;;25.96;47.47;100568.61;107276;1287;22296;-77
2022/06/27 05:52:15;;;;;;;4.50;3.70;;;;;;;26.19;46.71;100568.48;107646;1287;23071;-78
2022/06/27 05:55:30;;;;;;;7.00;3.90;;;;;;;26.43;46.57;100564.64;107259;1287;316297;-78
2022/06/27 05:59:13;;;;;;;;;;;;;;;;;;;;;
2022/06/27 06:02:26;;;;;;;;;;;;;;;;;;;;;
2022/06/27 06:05:37;;;;;;;6.60;3.90;;;;;;;28.04;43.67;100569.21;108741;1267;21997;-77
2022/06/27 06:08:37;;;;;;;11.70;5.00;;;;;;;28.34;43.45;100570.91;108745;1270;22003;-77
2022/06/27 06:11:24;;;;;;;9.00;4.70;;;;;;;28.72;43.03;100570.35;108863;1270;22001;-77
2022/06/27 06:14:36;;;;;;;;;;;;;;;;;;;;;
2022/06/27 06:17:31;;;;;;;;;;;;;;;;;;;;;
2022/06/27 06:20:32;;;;;;;6.70;3.70;;;;;;;29.22;41.26;100573.11;108680;1273;23632;-77
2022/06/27 06:23:12;;;;;;;5.50;3.60;;;;;;;29.36;41.40;100576.30;108945;1268;21976;-76
2022/06/27 06:26:27;;;;;;;;;;;;;;;;;;;;;
2022/06/27 06:29:22;;;;;;;5.50;3.70;;;;;;;30.13;40.02;100582.24;108705;1270;22861;-78
2022/06/27 06:32:52;;;;;;;4.60;3.60;;;;;;;30.34;39.21;100577.51;108751;1270;23835;-76
2022/06/27 06:35:59;;;;;;;5.20;3.60;;;;;;;30.52;38.24;100572.93;108329;1276;22907;-78
2022/06/27 06:38:40;;;;;;;7.10;3.20;;;;;;;30.65;38.11;100570.98;108436;1276;23715;-75
2022/06/27 06:41:33;;;;;;;6.00;3.30;;;;;;;30.86;37.99;100565.98;108645;1273;22064;-77
2022/06/27 06:44:34;;;;;;;9.20;3.90;;;;;;;31.12;36.92;100566.73;108426;1275;21991;-79
2022/06/27 06:48:32;;;;;;;;;;;;;;;;;;;;;
2022/06/27 06:51:35;;;;;;;9.20;3.30;;;;;;;31.77;36.21;100570.73;108314;1278;23713;-77
2022/06/27 06:54:45;;;;;;;4.10;3.00;;;;;;;32.27;35.41;100570.33;108377;1276;23011;-76
2022/06/27 06:57:25;;;;;;;4.10;3.30;;;;;;;32.57;34.29;100572.73;108511;1273;23714;-77
2022/06/27 06:59:59;;;;;;;6.90;3.00;;;;;;;32.51;33.39;100567.06;108469;1276;22186;-76
2022/06/27 07:02:37;;;;;;;8.60;3.50;;;;;;;32.42;34.01;100570.66;108426;1278;22916;-77
2022/06/27 07:05:16;;;;;;;9.50;3.40;;;;;;;32.47;33.83;100569.07;108415;1276;22017;-75
2022/06/27 07:07:51;;;;;;;8.90;3.70;;;;;;;32.49;33.60;100568.87;108375;1278;23752;-76
2022/06/27 07:10:28;;;;;;;6.20;3.60;;;;;;;32.47;33.26;100571.23;108547;1276;22758;-77
2022/06/27 07:16:51;;;;;;;6.70;2.90;;;;;;;32.60;32.87;100567.23;108658;1273;22001;-76
2022/06/27 07:19:53;;;;;;;4.90;2.90;;;;;;;32.47;32.55;100562.08;108510;1272;22195;-77
2022/06/27 07:22:54;;;;;;;9.00;2.80;;;;;;;32.48;33.22;100555.27;109059;1267;22879;-77
2022/06/27 07:26:09;;;;;;;5.60;3.20;;;;;;;32.84;32.65;100551.54;109121;1267;22098;-77
2022/06/27 07:29:20;;;;;;;;;;;;;;;;;;;;;
2022/06/27 07:32:32;;;;;;;;;;;;;;;;;;;;;
2022/06/27 07:35:35;;;;;;;7.20;2.60;;;;;;;33.27;31.31;100545.19;109094;1267;22243;-77
2022/06/27 07:38:53;;;;;;;;;;;;;;;;;;;;;
2022/06/27 07:42:19;;;;;;;17.70;3.70;;;;;;;33.36;30.96;100542.58;108821;1270;22783;-78
2022/06/27 07:45:14;;;;;;;4.00;2.70;;;;;;;33.47;30.76;100541.59;108736;1270;23616;-79
2022/06/27 07:48:17;;;;;;;;;;;;;;;;;;;;;
2022/06/27 07:51:00;;;;;;;7.70;2.90;;;;;;;33.42;31.04;100536.13;108695;1273;22057;-78
2022/06/27 07:54:22;;;;;;;5.20;2.50;;;;;;;33.61;30.71;100541.18;108213;1279;22075;-77
2022/06/27 07:57:19;;;;;;;6.00;2.60;;;;;;;33.72;30.27;100542.58;108175;1276;23065;-77
2022/06/27 08:00:31;;;;;;;8.60;3.20;;;;;;;33.73;29.95;100536.75;108606;1270;23690;-78
2022/06/27 08:04:36;;;;;;;5.80;2.80;;;;;;;33.88;29.73;100530.65;108837;1270;21994;-78
2022/06/27 08:08:27;;;;;;;5.40;3.00;;;;;;;33.97;29.45;100529.23;108576;1273;21986;-78
2022/06/27 08:12:46;;;;;;;;;;;;;;;;;;;;;
2022/06/27 08:16:08;;;;;;;12.40;2.70;;;;;;;33.97;29.24;100525.35;109465;1263;22816;-78
2022/06/27 08:19:18;;;;;;;4.10;3.00;;;;;;;34.02;29.10;100523.20;109250;1264;23617;-78
2022/06/27 08:22:30;;;;;;;4.60;2.60;;;;;;;34.07;29.26;100527.45;109216;1264;21955;-79
2022/06/27 08:25:30;;;;;;;;;;;;;;;;;;;;;
2022/06/27 08:28:52;;;;;;;4.50;2.70;;;;;;;33.55;28.85;100534.21;109212;1264;23737;-76
2022/06/27 08:32:36;;;;;;;5.20;2.90;;;;;;;33.45;29.48;100529.02;108958;1270;21992;-77
2022/06/27 08:35:50;;;;;;;5.00;3.30;;;;;;;33.62;29.34;100524.85;108862;1270;21978;-77
2022/06/27 08:38:59;;;;;;;4.00;2.30;;;;;;;33.88;28.84;100525.77;108547;1273;23965;-77
2022/06/27 08:42:13;;;;;;;5.00;3.20;;;;;;;34.09;28.34;100528.63;108587;1273;22006;-77
2022/06/27 08:44:49;;;;;;;3.30;2.50;;;;;;;34.13;28.37;100524.38;108344;1276;22473;-76
2022/06/27 08:47:27;;;;;;;4.40;2.50;;;;;;;34.17;28.57;100516.09;108600;1273;22031;-78
2022/06/27 08:50:38;;;;;;;6.90;2.80;;;;;;;34.19;28.22;100517.44;108776;1270;23005;-75
2022/06/27 08:53:33;;;;;;;8.30;2.80;;;;;;;33.94;28.22;100523.57;108896;1270;21979;-77
2022/06/27 08:56:55;;;;;;;4.90;2.60;;;;;;;33.94;29.05;100528.40;109215;1262;22757;-75
2022/06/27 09:00:03;;;;;;;;;;;;;;;;;;;;;
2022/06/27 09:03:32;;;;;;;;;;;;;;;;;;;;;
2022/06/27 09:06:50;;;;;;;4.80;2.60;;;;;;;34.37;28.34;100526.00;109205;1266;23802;-77
2022/06/27 09:09:42;;;;;;;5.20;2.20;;;;;;;34.39;28.15;100536.23;109140;1267;22103;-76
2022/06/27 09:13:37;;;;;;;;;;;;;;;;;;;;;
2022/06/27 09:17:16;;;;;;;6.60;2.50;;;;;;;33.83;28.67;100525.39;109068;1267;22045;-74
2022/06/27 09:20:04;;;;;;;3.00;2.20;;;;;;;33.65;29.12;100521.64;108959;1270;22108;-77
2022/06/27 09:22:47;;;;;;;;;;;;;;;;;;;;;
2022/06/27 09:25:35;;;;;;;7.80;3.10;;;;;;;33.96;29.00;100518.48;108844;1270;23607;-76
2022/06/27 09:28:09;;;;;;;4.30;3.10;;;;;;;34.02;29.12;100516.95;108885;1267;21979;-76
2022/06/27 09:30:44;;;;;;;4.40;2.60;;;;;;;34.13;28.92;100522.29;109247;1262;22038;-76
2022/06/27 09:33:16;;;;;;;9.30;3.60;;;;;;;34.04;28.86;100515.13;109030;1270;22032;-76
2022/06/27 09:35:51;;;;;;;5.10;2.80;;;;;;;34.07;29.35;100511.58;109000;1268;22459;-75
2022/06/27 09:38:35;;;;;;;6.10;2.60;;;;;;;34.20;29.01;100511.52;109061;1269;23742;-80
2022/06/27 09:42:25;;;;;;;4.70;2.60;;;;;;;34.17;29.14;100500.27;109171;1267;22479;-82
2022/06/27 09:45:32;;;;;;;;;;;;;;;34.04;29.06;100497.54;109380;1267;21959;-82
2022/06/27 09:49:08;;;;;;;;;;;;;;;;;;;;;
2022/06/27 09:52:21;;;;;;;5.80;3.10;;;;;;;33.58;30.17;100499.16;109145;1269;22560;-82
2022/06/27 09:55:14;;;;;;;9.30;3.40;;;;;;;33.75;30.22;100495.33;109096;1269;21996;-82
2022/06/27 09:58:23;;;;;;;6.90;3.10;;;;;;;33.90;29.83;100497.34;108741;1273;21994;-81
2022/06/27 10:01:53;;;;;;;;;;;;;;;;;;;;;
2022/06/27 10:05:03;;;;;;;5.90;3.00;;;;;;;33.66;29.83;100484.27;109043;1270;23699;-82
2022/06/27 10:12:50;;;;;;;4.90;2.90;;;;;;;33.54;29.84;100482.83;109053;1270;22047;-81
2022/06/27 10:16:03;;;;;;;;;;;;;;;;;;;;;
2022/06/27 10:20:20;;;;;;;;;;;;;;;;;;;;;
2022/06/27 10:23:47;;;;;;;;;;;;;;;;;;;;;
2022/06/27 10:27:40;;;;;;;6.20;2.40;;;;;;;33.79;28.88;100464.81;108577;1279;23758;-81
2022/06/27 10:31:11;;;;;;;8.10;2.70;;;;;;;33.82;28.97;100455.17;108233;1282;22097;-82
2022/06/27 10:34:14;;;;;;;11.30;4.10;;;;;;;33.89;28.73;100452.05;108581;1276;23606;-80
2022/06/27 10:37:54;;;;;;;6.80;2.90;;;;;;;33.82;28.71;100451.73;108645;1276;21999;-81
2022/06/27 10:41:04;;;;;;;;;;;;;;;;;;;;;
2022/06/27 10:43:50;;;;;;;5.20;2.50;;;;;;;33.44;29.30;100439.19;108175;1277;23817;-79
2022/06/27 10:46:18;;;;;;;3.30;2.30;;;;;;;33.52;29.63;100440.41;108554;1273;22020;-77
2022/06/27 10:49:06;;;;;;;5.30;2.90;;;;;;;33.68;29.24;100443.42;109049;1267;23769;-80
2022/06/27 10:51:48;;;;;;;9.20;3.10;;;;;;;33.63;28.87;100439.62;109303;1268;21979;-80
2022/06/27 10:54:39;;;;;;;4.20;2.70;;;;;;;33.51;29.19;100437.80;108593;1275;22082;-78
2022/06/27 10:58:24;;;;;;;;;;;;;;;;;;;;;
2022/06/27 11:01:33;;;;;;;3.70;3.10;;;;;;;33.15;29.63;100433.95;108521;1270;22011;-79
2022/06/27 11:04:36;;;;;;;11.00;3.20;;;;;;;32.96;29.53;100431.20;109075;1264;22783;-78
2022/06/27 11:07:10;;;;;;;6.40;4.20;;;;;;;32.76;29.96;100422.63;109492;1264;22019;-76
2022/06/27 11:09:47;;;;;;;7.80;3.30;;;;;;;32.66;30.01;100426.13;109450;1264;22052;-77
2022/06/27 11:12:32;;;;;;;8.10;3.10;;;;;;;32.48;30.19;100425.83;109720;1256;21973;-76
2022/06/27 11:15:06;;;;;;;5.00;2.70;;;;;;;32.37;30.16;100422.04;109534;1263;23029;-75
2022/06/27 11:17:51;;;;;;;44.20;7.50;;;;;;;32.34;29.49;100420.48;109119;1267;24058;-79
2022/06/27 11:20:43;;;;;;;7.00;2.90;;;;;;;32.33;29.22;100419.34;108718;1270;22007;-76
2022/06/27 11:23:17;;;;;;;4.00;2.50;;;;;;;32.32;28.99;100412.10;108741;1270;22080;-76
2022/06/27 11:25:47;;;;;;;4.40;2.60;;;;;;;32.30;28.93;100411.27;108875;1270;21976;-76
2022/06/27 11:34:03;;;;;;;6.10;3.10;;;;;;;32.12;29.23;100402.64;108940;1267;21989;-76
2022/06/27 11:36:46;;;;;;;7.50;3.40;;;;;;;32.08;29.60;100400.34;108931;1267;23791;-76
2022/06/27 11:39:35;;;;;;;6.00;3.00;;;;;;;32.11;29.70;100402.19;109006;1267;22099;-77
2022/06/27 11:42:10;;;;;;;3.60;2.80;;;;;;;32.08;29.45;100398.31;108999;1267;22831;-79
2022/06/27 11:45:10;;;;;;;5.20;3.40;;;;;;;32.05;29.97;100393.70;108530;1270;23797;-77
2022/06/27 11:47:45;;;;;;;6.20;2.90;;;;;;;32.05;30.38;100397.52;108756;1270;22034;-76
2022/06/27 11:50:20;;;;;;;6.20;3.00;;;;;;;32.02;30.87;100394.92;108767;1270;23137;-76
2022/06/27 11:52:54;;;;;;;5.10;3.40;;;;;;;32.04;30.92;100388.54;108443;1276;23670;-77
2022/06/27 11:55:33;;;;;;;7.50;3.30;;;;;;;32.03;30.63;100384.45;108775;1267;22776;-80
2022/06/27 11:59:06;;;;;;;;;;;;;;;;;;;;;
2022/06/27 12:02:05;;;;;;;7.10;2.90;;;;;;;32.17;30.80;100371.00;108580;1270;23805;-77
2022/06/27 12:04:35;;;;;;;3.70;2.60;;;;;;;32.24;30.36;100368.73;108927;1270;23601;-78
2022/06/27 12:07:09;;;;;;;6.10;2.70;;;;;;;32.22;30.01;100367.85;108937;1270;23613;-77
2022/06/27 12:09:52;;;;;;;6.60;2.90;;;;;;;32.21;30.01;100365.09;108910;1270;21992;-78
2022/06/27 12:12:26;;;;;;;5.00;3.00;;;;;;;32.26;29.99;100361.48;108951;1267;21996;-77
2022/06/27 12:14:58;;;;;;;6.80;2.70;;;;;;;32.29;29.69;100357.45;108890;1267;21982;-77
2022/06/27 12:17:41;;;;;;;7.30;3.50;;;;;;;32.32;29.46;100359.07;109420;1261;21982;-78
2022/06/27 12:20:11;;;;;;;8.90;3.70;;;;;;;32.33;29.39;100355.31;108842;1270;22943;-78
2022/06/27 12:22:46;;;;;;;7.70;3.10;;;;;;;32.37;29.30;100358.38;108804;1270;21976;-78
2022/06/27 12:25:23;;;;;;;6.30;2.60;;;;;;;32.40;29.03;100360.19;108925;1267;22059;-79
2022/06/27 12:27:53;;;;;;;4.30;2.70;;;;;;;32.41;28.64;100360.23;108928;1269;22064;-78
2022/06/27 12:30:26;;;;;;;6.90;2.80;;;;;;;32.40;27.95;100356.90;109071;1267;22037;-78
2022/06/27 12:32:55;;;;;;;4.10;2.90;;;;;;;32.42;27.57;100357.85;109249;1263;23042;-78
2022/06/27 12:35:46;;;;;;;;;;;;;;;;;;;;;
2022/06/27 12:38:19;;;;;;;3.90;2.80;;;;;;;32.48;27.41;100352.22;108803;1270;21997;-78
2022/06/27 12:41:11;;;;;;;3.70;2.80;;;;;;;32.52;27.44;100352.84;108846;1270;23082;-78
2022/06/27 12:43:45;;;;;;;8.40;3.60;;;;;;;32.54;27.98;100354.48;109508;1264;21988;-80
2022/06/27 12:46:17;;;;;;;4.80;3.10;;;;;;;32.50;28.15;100348.77;109954;1261;23073;-78
2022/06/27 12:48:52;;;;;;;7.40;3.30;;;;;;;32.45;28.57;100345.46;109877;1258;23582;-78
2022/06/27 12:51:35;;;;;;;7.00;2.80;;;;;;;32.45;29.08;100341.77;109658;1262;22059;-78
2022/06/27 12:54:08;;;;;;;7.20;3.20;;;;;;;32.50;29.00;100349.66;109764;1261;21972;-79
2022/06/27 12:56:46;;;;;;;3.90;3.10;;;;;;;32.56;28.48;100348.60;109809;1256;24172;-78
2022/06/27 12:59:17;;;;;;;4.80;2.60;;;;;;;32.61;28.13;100346.18;110157;1259;22976;-79
2022/06/27 13:01:49;;;;;;;4.70;3.40;;;;;;;32.64;28.09;100340.84;110114;1258;22148;-77
2022/06/27 13:04:18;;;;;;;5.90;2.90;;;;;;;32.69;28.23;100345.60;110281;1259;24536;-78
2022/06/27 13:06:49;;;;;;;8.20;3.20;;;;;;;32.71;27.98;100340.65;110319;1256;23672;-79
2022/06/27 13:09:19;;;;;;;5.90;3.10;;;;;;;32.69;27.84;100337.55;109926;1259;21965;-77
2022/06/27 13:11:49;;;;;;;5.00;2.90;;;;;;;32.65;28.08;100339.35;110232;1257;22428;-77
2022/06/27 13:14:19;;;;;;;6.10;4.20;;;;;;;32.64;28.31;100336.47;110796;1257;22943;-78
2022/06/27 13:16:51;;;;;;;3.60;3.00;;;;;;;32.65;28.27;100331.14;110589;1253;23702;-78
2022/06/27 13:19:28;;;;;;;6.20;2.90;;;;;;;32.64;28.39;100325.38;110684;1253;21977;-77
2022/06/27 13:21:58;;;;;;;8.80;3.10;;;;;;;32.69;28.19;100325.35;110335;1253;21963;-78
2022/06/27 13:24:29;;;;;;;6.10;3.40;;;;;;;32.74;27.73;100328.89;110454;1253;23030;-77
2022/06/27 13:27:01;;;;;;;5.40;2.80;;;;;;;32.76;27.26;100329.79;110068;1260;22040;-77
2022/06/27 13:29:33;;;;;;;4.00;2.50;;;;;;;32.77;26.94;100327.08;109822;1261;23016;-78
2022/06/27 13:32:03;;;;;;;6.60;3.20;;;;;;;32.75;26.51;100325.05;109709;1261;23192;-78
2022/06/27 13:34:42;;;;;;;4.90;2.50;;;;;;;32.76;26.58;100326.20;110002;1259;22036;-78
2022/06/27 13:37:54;;;;;;;5.00;2.70;;;;;;;32.74;26.84;100324.86;109140;1267;21979;-78
2022/06/27 13:40:24;;;;;;;4.00;3.30;;;;;;;32.72;27.15;100321.41;109217;1264;21989;-78
2022/06/27 13:42:56;;;;;;;4.80;3.70;;;;;;;32.76;27.26;100319.17;109045;1267;23732;-79
2022/06/27 13:45:27;;;;;;;4.40;3.30;;;;;;;32.82;27.20;100313.27;109627;1259;22066;-78
2022/06/27 13:47:57;;;;;;;5.00;2.80;;;;;;;32.84;27.44;100314.59;110132;1258;21966;-77
2022/06/27 13:50:34;;;;;;;7.00;3.90;;;;;;;32.84;27.70;100311.47;109966;1258;21973;-79
2022/06/27 13:53:16;;;;;;;5.10;2.50;;;;;;;32.85;28.02;100312.15;110272;1258;23777;-78
2022/06/27 13:55:51;;;;;;;6.60;3.20;;;;;;;32.87;28.11;100317.73;110259;1258;23584;-77
2022/06/27 13:58:21;;;;;;;5.50;2.50;;;;;;;32.86;27.88;100315.66;110304;1258;21978;-78
2022/06/27 14:01:07;;;;;;;3.40;3.00;;;;;;;32.86;27.65;100308.44;109770;1260;23093;-77
2022/06/27 14:03:49;;;;;;;4.80;2.70;;;;;;;32.88;27.55;100309.39;110464;1253;23053;-80
2022/06/27 14:09:35;;;;;;;5.30;3.10;;;;;;;32.93;27.69;100311.30;110667;1255;21977;-81
2022/06/27 14:13:01;;;;;;;8.30;2.70;;;;;;;32.90;27.74;100311.67;111191;1252;22295;-81
2022/06/27 14:16:07;;;;;;;4.10;2.90;;;;;;;32.86;27.34;100306.96;111054;1253;22742;-82
2022/06/27 14:18:56;;;;;;;3.70;2.50;;;;;;;32.84;27.31;100302.88;110409;1257;21969;-80
2022/06/27 14:21:39;;;;;;;6.70;3.50;;;;;;;32.85;27.32;100305.29;110404;1259;22871;-82
2022/06/27 14:28:06;;;;;;;4.60;3.30;;;;;;;32.87;27.46;100302.02;108591;1276;23001;-81
2022/06/27 14:31:20;;;;;;;5.10;3.40;;;;;;;32.91;27.57;100300.63;108717;1276;22722;-82
2022/06/27 14:34:10;;;;;;;5.60;3.70;;;;;;;32.95;27.71;100297.25;108636;1276;22010;-82
2022/06/27 14:37:27;;;;;;;6.90;3.40;;;;;;;32.98;27.46;100295.36;108196;1279;22311;-81
2022/06/27 14:39:57;;;;;;;4.40;3.10;;;;;;;32.98;27.00;100293.35;108243;1281;22067;-81
2022/06/27 14:42:40;;;;;;;5.10;2.90;;;;;;;32.97;26.67;100291.81;108088;1281;22412;-81
2022/06/27 14:45:43;;;;;;;9.20;2.90;;;;;;;32.99;26.71;100295.72;108412;1276;22093;-82
2022/06/27 14:48:33;;;;;;;4.80;3.90;;;;;;;32.97;27.28;100292.98;108244;1282;23081;-82
2022/06/27 14:51:12;;;;;;;4.60;3.20;;;;;;;32.87;28.13;100291.52;107809;1287;23826;-82
2022/06/27 14:54:29;;;;;;;7.00;3.30;;;;;;;32.86;28.17;100290.46;108006;1281;22020;-83
2022/06/27 14:57:39;;;;;;;6.60;3.00;;;;;;;32.92;28.02;100288.02;108768;1267;23676;-82
2022/06/27 15:00:47;;;;;;;4.30;2.70;;;;;;;32.94;27.93;100284.70;109393;1264;21977;-82
2022/06/27 15:03:50;;;;;;;5.90;3.00;;;;;;;32.94;28.17;100283.88;109390;1267;24238;-81
2022/06/27 15:06:56;;;;;;;5.10;2.80;;;;;;;32.94;27.72;100280.91;109287;1267;21980;-82
2022/06/27 15:09:46;;;;;;;6.10;3.00;;;;;;;32.96;27.67;100279.05;109245;1264;24445;-82
2022/06/27 15:12:35;;;;;;;;;;;;;;;;;;;;;
2022/06/27 15:18:35;;;;;;;9.00;2.80;;;;;;;32.99;27.86;100271.16;109124;1267;21985;-82
2022/06/27 15:21:44;;;;;;;4.80;2.80;;;;;;;32.98;27.71;100274.83;109923;1261;23697;-83
2022/06/27 15:24:57;;;;;;;5.60;2.90;;;;;;;33.02;27.92;100273.48;110370;1260;22039;-82
2022/06/27 15:28:16;;;;;;;6.90;3.00;;;;;;;33.04;27.82;100271.48;110085;1261;23607;-82
2022/06/27 15:31:12;;;;;;;4.70;3.40;;;;;;;33.04;27.95;100267.60;110714;1252;22738;-83
2022/06/27 15:34:04;;;;;;;7.50;3.40;;;;;;;33.01;28.16;100267.62;110587;1254;22137;-83
2022/06/27 15:36:54;;;;;;;6.30;3.20;;;;;;;33.00;28.22;100266.20;110517;1258;21994;-82
2022/06/27 15:39:29;;;;;;;5.60;3.20;;;;;;;32.96;28.12;100261.71;110289;1258;21966;-82
2022/06/27 15:43:06;;;;;;;3.90;3.00;;;;;;;32.91;28.14;100265.13;110730;1256;22046;-81
2022/06/27 15:46:00;;;;;;;4.40;2.80;;;;;;;32.87;28.28;100262.78;110364;1259;23575;-82
2022/06/27 15:48:40;;;;;;;4.50;3.60;;;;;;;32.89;28.39;100259.50;110097;1261;23597;-82
2022/06/27 15:51:35;;;;;;;6.70;4.10;;;;;;;32.92;28.68;100256.17;109590;1264;22498;-80
2022/06/27 15:54:22;;;;;;;4.10;3.70;;;;;;;32.93;28.41;100257.09;109785;1259;21971;-83
2022/06/27 15:57:12;;;;;;;5.70;4.00;;;;;;;32.91;28.65;100250.77;109636;1265;22035;-81
2022/06/27 15:59:52;;;;;;;5.00;3.80;;;;;;;32.94;28.57;100245.97;109062;1270;22004;-84
2022/06/27 16:02:49;;;;;;;;;;;;;;;;;;;;;
2022/06/27 16:05:50;;;;;;;5.10;3.30;;;;;;;32.92;28.55;100245.23;109299;1267;22083;-81
2022/06/27 16:08:33;;;;;;;6.60;3.10;;;;;;;32.91;28.70;100244.00;109229;1267;21981;-80
2022/06/27 16:11:27;;;;;;;8.50;4.10;;;;;;;32.90;28.80;100242.11;109935;1261;21984;-82
2022/06/27 16:14:27;;;;;;;;;;;;;;;;;;;;;
2022/06/27 16:17:12;;;;;;;3.80;3.40;;;;;;;32.90;28.96;100243.44;110032;1258;23776;-83
2022/06/27 16:20:30;;;;;;;4.40;4.00;;;;;;;32.90;28.89;100243.27;110529;1255;22025;-81
2022/06/27 16:23:26;;;;;;;11.30;4.20;;;;;;;32.87;29.21;100243.91;110939;1252;24074;-84
2022/06/27 16:26:16;;;;;;;4.90;3.80;;;;;;;32.87;29.23;100244.50;111076;1253;21961;-83